Time;durP1;ratioP1;P1;durP2;ratioP2;P2;SDS_P1;SDS_P2;PMS_P1;PMS_P2;Temp;Humidity;BMP_temperature;BMP_pressure;BME280_temperature;BME280_humidity;BME280_pressure;Samples;Min_cycle;Max_cycle;Signal;HPM_P1;HPM_P2
2021/03/16 00:01:22;;;;;;;4.35;2.97;;;4.40;80.20;;;;;;5049305;28;20036;-64
2021/03/16 00:03:48;;;;;;;3.78;2.80;;;4.40;80.10;;;;;;5052416;28;20037;-65
2021/03/16 00:06:16;;;;;;;5.68;2.80;;;4.50;80.10;;;;;;5051162;28;20045;-64
2021/03/16 00:08:44;;;;;;;5.65;2.97;;;4.50;80.00;;;;;;5052136;28;20048;-65
2021/03/16 00:11:17;;;;;;;6.65;3.40;;;4.50;79.90;;;;;;5044314;28;20041;-64
2021/03/16 00:13:47;;;;;;;6.03;3.10;;;4.50;79.80;;;;;;5055495;28;20036;-64
2021/03/16 00:16:18;;;;;;;4.07;3.08;;;4.60;79.70;;;;;;5052809;28;20503;-65
2021/03/16 00:18:45;;;;;;;8.25;3.30;;;4.60;80.50;;;;;;5055862;28;20036;-65
2021/03/16 00:21:11;;;;;;;7.60;3.42;;;4.60;79.50;;;;;;5049282;28;20036;-65
2021/03/16 00:23:39;;;;;;;7.38;3.42;;;4.60;79.40;;;;;;5057190;28;20075;-64
2021/03/16 00:26:09;;;;;;;7.05;3.38;;;4.60;79.20;;;;;;5061048;28;20033;-64
2021/03/16 00:28:37;;;;;;;4.32;2.97;;;4.60;78.80;;;;;;5050886;28;20534;-64
2021/03/16 00:31:03;;;;;;;6.78;3.17;;;4.60;78.80;;;;;;5056593;28;20125;-65
2021/03/16 00:33:33;;;;;;;9.25;3.70;;;4.60;78.80;;;;;;5057184;28;20535;-64
2021/03/16 00:35:59;;;;;;;5.90;3.25;;;4.60;78.80;;;;;;5052398;28;20112;-65
2021/03/16 00:38:27;;;;;;;7.47;3.42;;;4.60;78.60;;;;;;5071228;28;20116;-64
2021/03/16 00:40:53;;;;;;;7.35;3.45;;;4.60;78.60;;;;;;5050528;28;20061;-64
2021/03/16 00:43:21;;;;;;;5.78;3.60;;;4.60;78.30;;;;;;5054578;28;20593;-65
2021/03/16 00:45:49;;;;;;;5.75;3.30;;;4.60;78.30;;;;;;5069836;28;21432;-63
2021/03/16 00:48:18;;;;;;;5.47;3.60;;;4.60;78.40;;;;;;5051795;28;20048;-64
2021/03/16 00:50:43;;;;;;;5.78;3.45;;;4.60;78.30;;;;;;5056345;28;20135;-64
2021/03/16 00:53:12;;;;;;;6.40;3.40;;;4.60;78.40;;;;;;5056387;28;20119;-64
2021/03/16 00:55:41;;;;;;;4.28;3.30;;;4.60;78.30;;;;;;5057861;28;20025;-64
2021/03/16 00:58:07;;;;;;;9.75;3.90;;;4.60;78.30;;;;;;5060679;28;20037;-64
2021/03/16 01:00:33;;;;;;;8.35;3.72;;;4.60;78.50;;;;;;5051691;28;20158;-64
2021/03/16 01:03:00;;;;;;;6.95;3.63;;;4.60;78.30;;;;;;5052774;28;20029;-65
2021/03/16 01:05:31;;;;;;;8.07;3.17;;;4.60;78.30;;;;;;5052076;28;20036;-65
2021/03/16 01:07:59;;;;;;;8.02;3.50;;;4.60;78.20;;;;;;5057805;28;20044;-64
2021/03/16 01:10:32;;;;;;;4.93;3.17;;;4.60;78.00;;;;;;5062721;28;20040;-64
2021/03/16 01:13:02;;;;;;;6.97;2.90;;;4.60;77.80;;;;;;5054653;28;20036;-64
2021/03/16 01:15:30;;;;;;;6.50;2.85;;;4.60;77.80;;;;;;5056484;28;20025;-64
2021/03/16 01:17:55;;;;;;;6.82;3.15;;;4.50;77.60;;;;;;5057058;28;20044;-64
2021/03/16 01:20:24;;;;;;;7.30;2.90;;;4.50;77.60;;;;;;5052115;28;20029;-65
2021/03/16 01:22:52;;;;;;;5.15;2.90;;;4.50;77.80;;;;;;5055123;28;20032;-64
2021/03/16 01:25:20;;;;;;;8.35;3.05;;;4.50;77.90;;;;;;5059661;28;20037;-64
2021/03/16 01:27:46;;;;;;;6.45;3.28;;;4.50;78.00;;;;;;5059996;28;20457;-64
2021/03/16 01:30:16;;;;;;;6.10;2.83;;;4.50;78.10;;;;;;5053377;28;20036;-64
2021/03/16 01:32:44;;;;;;;5.85;3.45;;;4.50;78.30;;;;;;5059531;28;20033;-64
2021/03/16 01:35:13;;;;;;;6.38;3.20;;;4.50;78.30;;;;;;5057197;28;20033;-62
2021/03/16 01:37:40;;;;;;;5.68;2.88;;;4.50;78.50;;;;;;5053766;28;20037;-64
2021/03/16 01:40:19;;;;;;;4.70;3.17;;;4.50;78.60;;;;;;5050042;28;20142;-65
2021/03/16 01:42:45;;;;;;;5.53;2.97;;;4.50;78.70;;;;;;5056338;28;20040;-64
2021/03/16 01:45:18;;;;;;;4.43;2.72;;;4.50;78.60;;;;;;5056728;28;20516;-64
2021/03/16 01:47:50;;;;;;;5.45;2.83;;;4.50;78.70;;;;;;5053629;28;20029;-64
2021/03/16 01:50:22;;;;;;;6.20;3.10;;;4.50;78.80;;;;;;5046787;28;20041;-64
2021/03/16 01:52:52;;;;;;;3.92;2.55;;;4.50;78.70;;;;;;5050580;28;20090;-65
2021/03/16 01:55:22;;;;;;;4.85;3.05;;;4.40;78.50;;;;;;5053220;28;20041;-65
2021/03/16 01:57:51;;;;;;;7.07;2.65;;;4.40;78.60;;;;;;5049376;28;20033;-64
2021/03/16 02:00:21;;;;;;;3.80;2.65;;;4.50;78.80;;;;;;5052410;28;20028;-64
2021/03/16 02:02:52;;;;;;;5.20;2.88;;;4.40;78.80;;;;;;5051228;28;20037;-64
2021/03/16 02:05:22;;;;;;;5.22;2.92;;;4.40;78.80;;;;;;5050414;28;20041;-64
2021/03/16 02:08:04;;;;;;;6.28;2.67;;;4.40;78.80;;;;;;5053176;28;20481;-64
2021/03/16 02:10:41;;;;;;;6.20;2.75;;;4.40;78.90;;;;;;5039101;28;20056;-64
2021/03/16 02:13:21;;;;;;;10.27;2.97;;;4.50;79.00;;;;;;5044563;28;20033;-64
2021/03/16 02:15:58;;;;;;;6.80;2.65;;;4.50;78.80;;;;;;5056521;28;20520;-64
2021/03/16 02:18:32;;;;;;;7.63;2.85;;;4.50;78.80;;;;;;5057771;28;20037;-64
2021/03/16 02:21:19;;;;;;;7.38;2.70;;;4.50;78.80;;;;;;5053492;28;20504;-64
2021/03/16 02:24:38;;;;;;;3.53;2.67;;;4.60;78.80;;;;;;5058426;28;20025;-65
2021/03/16 02:27:18;;;;;;;5.15;2.53;;;4.60;78.60;;;;;;5007916;28;20034;-64
2021/03/16 02:29:54;;;;;;;5.18;2.90;;;4.60;78.30;;;;;;5003028;28;20041;-64
2021/03/16 02:32:27;;;;;;;5.53;3.03;;;4.60;78.30;;;;;;5041396;28;20032;-64
2021/03/16 02:35:04;;;;;;;6.00;2.90;;;4.60;78.40;;;;;;5055602;28;20487;-63
2021/03/16 02:37:36;;;;;;;7.78;2.97;;;4.60;78.40;;;;;;5057843;28;20066;-61
2021/03/16 02:40:07;;;;;;;4.60;2.58;;;4.60;78.30;;;;;;5057034;28;20041;-64
2021/03/16 02:42:37;;;;;;;5.55;2.58;;;4.60;78.10;;;;;;5056024;28;20041;-64
2021/03/16 02:45:08;;;;;;;6.63;2.95;;;4.60;78.10;;;;;;5055118;28;20041;-65
2021/03/16 02:47:36;;;;;;;7.65;2.97;;;4.60;78.00;;;;;;5050813;28;20041;-64
2021/03/16 02:50:10;;;;;;;7.07;2.97;;;4.60;77.90;;;;;;5048298;28;20029;-63
2021/03/16 02:52:41;;;;;;;6.70;3.00;;;4.60;77.90;;;;;;5057033;28;20037;-64
2021/03/16 02:55:07;;;;;;;3.95;2.83;;;4.50;77.80;;;;;;5068074;28;20048;-64
2021/03/16 02:57:39;;;;;;;5.97;2.88;;;4.60;77.90;;;;;;5050727;28;20033;-64
2021/03/16 03:00:07;;;;;;;5.40;3.30;;;4.50;77.70;;;;;;5055132;28;20064;-64
2021/03/16 03:02:34;;;;;;;7.22;3.25;;;4.50;77.60;;;;;;5056151;28;20037;-63
2021/03/16 03:05:01;;;;;;;7.97;3.20;;;4.50;77.50;;;;;;5053347;28;20040;-64
2021/03/16 03:07:27;;;;;;;5.05;2.95;;;4.50;77.30;;;;;;5049149;28;20494;-64
2021/03/16 03:09:56;;;;;;;8.43;3.22;;;4.50;77.30;;;;;;5047689;28;20036;-64
2021/03/16 03:12:22;;;;;;;4.57;2.67;;;4.50;77.40;;;;;;5045626;28;20029;-64
2021/03/16 03:14:49;;;;;;;6.78;3.10;;;4.50;77.40;;;;;;5056793;28;20492;-64
2021/03/16 03:17:18;;;;;;;4.78;2.67;;;4.50;77.40;;;;;;5050508;28;20661;-65
2021/03/16 03:19:43;;;;;;;7.22;2.90;;;4.50;77.30;;;;;;5053593;28;20047;-64
2021/03/16 03:22:26;;;;;;;8.95;3.40;;;4.50;77.40;;;;;;5056386;28;20033;-64
2021/03/16 03:25:07;;;;;;;6.57;3.05;;;4.50;77.20;;;;;;5050069;28;20033;-64
2021/03/16 03:27:38;;;;;;;5.07;2.80;;;4.50;77.10;;;;;;5057322;28;20033;-63
2021/03/16 03:30:08;;;;;;;9.25;3.30;;;4.50;77.20;;;;;;5052748;28;20033;-63
2021/03/16 03:32:39;;;;;;;4.07;2.70;;;4.50;78.00;;;;;;5055112;28;20056;-64
2021/03/16 03:35:07;;;;;;;6.63;3.40;;;4.60;77.10;;;;;;5055458;28;20471;-64
2021/03/16 03:37:37;;;;;;;5.18;3.13;;;4.60;77.20;;;;;;5057715;28;20036;-64
2021/03/16 03:40:09;;;;;;;4.18;3.10;;;4.60;77.10;;;;;;5053981;28;20036;-64
2021/03/16 03:42:41;;;;;;;4.75;2.83;;;4.50;77.10;;;;;;5055330;28;20055;-64
2021/03/16 03:45:10;;;;;;;4.28;3.08;;;4.50;76.90;;;;;;5056111;28;20048;-63
2021/03/16 03:47:39;;;;;;;7.38;3.40;;;4.50;76.90;;;;;;5054523;28;20040;-64
2021/03/16 03:50:10;;;;;;;5.43;2.85;;;4.50;76.80;;;;;;5050999;28;20028;-64
2021/03/16 03:52:36;;;;;;;4.70;3.10;;;4.50;76.90;;;;;;5056202;28;20029;-64
2021/03/16 03:55:08;;;;;;;5.75;2.42;;;4.50;76.80;;;;;;5052103;28;20032;-65
2021/03/16 03:57:35;;;;;;;7.82;3.03;;;4.50;76.70;;;;;;5056019;28;20033;-63
2021/03/16 04:00:01;;;;;;;6.22;2.42;;;4.50;76.60;;;;;;5049480;28;20029;-64
2021/03/16 04:02:32;;;;;;;6.05;2.67;;;4.50;76.00;;;;;;5053137;28;20820;-65
2021/03/16 04:04:58;;;;;;;8.13;2.55;;;4.50;76.00;;;;;;5048895;28;20928;-64
2021/03/16 04:07:29;;;;;;;6.38;2.53;;;4.50;76.00;;;;;;5052996;28;20033;-64
2021/03/16 04:09:58;;;;;;;5.25;2.50;;;4.50;77.10;;;;;;5048792;28;20041;-64
2021/03/16 04:12:26;;;;;;;7.07;2.70;;;4.40;76.50;;;;;;5046258;28;20090;-64
2021/03/16 04:14:59;;;;;;;12.35;2.90;;;4.40;76.70;;;;;;5051275;28;20037;-64
2021/03/16 04:17:25;;;;;;;7.53;2.65;;;4.40;76.80;;;;;;5052517;28;20040;-66
2021/03/16 04:19:54;;;;;;;5.13;2.50;;;4.30;76.90;;;;;;5047135;28;20042;-64
2021/03/16 04:22:22;;;;;;;6.18;2.75;;;4.30;76.90;;;;;;5056852;28;20043;-66
2021/03/16 04:24:56;;;;;;;8.73;3.25;;;4.30;77.00;;;;;;5063839;28;20108;-64
2021/03/16 04:27:25;;;;;;;7.75;3.53;;;4.30;77.20;;;;;;5050730;28;20037;-64
2021/03/16 04:29:51;;;;;;;7.57;2.80;;;4.30;77.30;;;;;;5038842;28;20037;-64
2021/03/16 04:32:20;;;;;;;5.45;2.60;;;4.40;77.30;;;;;;5028885;28;20061;-64
2021/03/16 04:34:50;;;;;;;6.38;2.85;;;4.40;77.40;;;;;;5031737;28;20021;-63
2021/03/16 04:37:16;;;;;;;5.13;2.70;;;4.30;77.40;;;;;;5023588;28;20030;-64
2021/03/16 04:39:45;;;;;;;5.53;2.65;;;4.40;77.40;;;;;;5034607;28;20029;-64
2021/03/16 04:42:13;;;;;;;5.93;2.35;;;4.40;77.40;;;;;;5031900;28;20041;-64
2021/03/16 04:44:38;;;;;;;6.53;2.65;;;4.40;77.30;;;;;;5034433;28;20116;-64
2021/03/16 04:47:06;;;;;;;7.03;2.70;;;4.40;77.30;;;;;;5030067;28;20104;-65
2021/03/16 04:49:37;;;;;;;4.95;2.75;;;4.40;77.40;;;;;;5035158;28;20120;-65
2021/03/16 04:52:02;;;;;;;6.57;3.00;;;4.40;77.20;;;;;;5027949;28;20037;-64
2021/03/16 04:54:28;;;;;;;7.60;3.00;;;4.40;77.10;;;;;;5031814;28;20044;-64
2021/03/16 04:56:56;;;;;;;7.80;3.45;;;4.40;77.10;;;;;;5035038;28;20033;-64
2021/03/16 04:59:24;;;;;;;8.57;2.92;;;4.50;77.10;;;;;;5036450;28;20033;-64
2021/03/16 05:01:52;;;;;;;4.63;3.03;;;4.50;77.10;;;;;;5035163;28;20029;-63
2021/03/16 05:04:20;;;;;;;9.15;3.30;;;4.50;77.10;;;;;;5035216;28;20033;-64
2021/03/16 05:06:45;;;;;;;6.07;3.33;;;4.40;77.10;;;;;;5035049;28;20037;-64
2021/03/16 05:09:13;;;;;;;6.13;3.22;;;4.40;77.10;;;;;;5052980;28;20033;-64
2021/03/16 05:11:39;;;;;;;4.68;3.08;;;4.40;77.30;;;;;;5050932;28;20511;-64
2021/03/16 05:14:05;;;;;;;8.35;3.60;;;4.40;77.30;;;;;;5061075;28;20039;-65
2021/03/16 05:16:32;;;;;;;8.30;2.80;;;4.40;77.40;;;;;;5052665;28;20932;-64
2021/03/16 05:19:01;;;;;;;8.27;3.40;;;4.40;77.30;;;;;;5057271;28;20071;-66
2021/03/16 05:21:33;;;;;;;8.95;3.40;;;4.40;77.40;;;;;;5058978;28;20036;-64
2021/03/16 05:23:58;;;;;;;8.63;3.05;;;4.30;77.50;;;;;;5050294;28;20033;-64
2021/03/16 05:26:24;;;;;;;9.70;3.33;;;4.40;77.60;;;;;;5055611;28;20095;-64
2021/03/16 05:28:54;;;;;;;7.10;3.85;;;4.30;77.60;;;;;;5056418;28;20512;-64
2021/03/16 05:31:22;;;;;;;4.88;3.05;;;4.20;77.80;;;;;;5043615;28;20111;-64
2021/03/16 05:33:49;;;;;;;5.18;3.05;;;4.20;77.80;;;;;;5052356;28;20028;-66
2021/03/16 05:36:20;;;;;;;7.68;3.60;;;4.20;78.00;;;;;;5023914;28;20151;-65
2021/03/16 05:38:50;;;;;;;5.50;3.72;;;4.10;78.00;;;;;;5055829;28;20041;-64
2021/03/16 05:41:19;;;;;;;6.80;3.47;;;4.20;78.20;;;;;;5051477;28;20045;-65
2021/03/16 05:43:47;;;;;;;7.15;3.70;;;4.10;78.20;;;;;;5052158;28;20423;-65
2021/03/16 05:46:15;;;;;;;8.05;3.70;;;4.10;78.30;;;;;;5058903;28;20063;-66
2021/03/16 05:48:44;;;;;;;8.15;3.97;;;4.10;78.40;;;;;;5058357;28;20041;-65
2021/03/16 05:51:12;;;;;;;7.25;3.58;;;4.10;78.30;;;;;;5057552;28;20037;-64
2021/03/16 05:53:40;;;;;;;9.10;3.78;;;4.10;78.50;;;;;;5058766;28;20035;-65
2021/03/16 05:56:06;;;;;;;11.35;4.00;;;4.10;78.50;;;;;;5058315;28;20056;-65
2021/03/16 05:58:35;;;;;;;6.78;3.65;;;4.10;78.50;;;;;;5074252;28;20063;-65
2021/03/16 06:01:03;;;;;;;11.63;4.03;;;4.10;78.50;;;;;;5054943;28;20061;-64
2021/03/16 06:03:28;;;;;;;5.80;3.72;;;4.10;78.50;;;;;;5056831;28;20113;-65
2021/03/16 06:05:56;;;;;;;8.55;3.97;;;4.10;78.50;;;;;;5057927;28;20511;-65
2021/03/16 06:08:24;;;;;;;7.97;3.60;;;4.20;78.50;;;;;;5056497;28;20420;-65
2021/03/16 06:10:52;;;;;;;7.50;3.53;;;4.20;78.50;;;;;;5050204;28;20041;-64
2021/03/16 06:13:20;;;;;;;5.78;3.35;;;4.20;78.50;;;;;;5057406;28;20036;-64
2021/03/16 06:15:50;;;;;;;6.63;3.15;;;4.20;78.40;;;;;;5057959;28;20037;-64
2021/03/16 06:18:28;;;;;;;9.73;4.07;;;4.20;78.30;;;;;;5058616;28;20033;-65
2021/03/16 06:21:05;;;;;;;9.18;3.72;;;4.20;78.60;;;;;;5056373;28;20438;-65
2021/03/16 06:23:37;;;;;;;10.13;3.90;;;4.20;78.50;;;;;;5059070;28;20152;-64
2021/03/16 06:26:13;;;;;;;6.45;3.33;;;4.10;78.50;;;;;;5055029;28;20025;-65
2021/03/16 06:28:39;;;;;;;9.70;4.03;;;4.10;78.60;;;;;;5058080;28;20408;-64
2021/03/16 06:31:05;;;;;;;8.13;3.80;;;4.10;79.60;;;;;;5058860;28;20043;-64
2021/03/16 06:33:34;;;;;;;7.53;3.75;;;4.10;78.90;;;;;;5058804;28;20036;-64
2021/03/16 06:36:09;;;;;;;6.90;3.55;;;4.10;79.10;;;;;;5056833;28;20036;-65
2021/03/16 06:38:39;;;;;;;6.90;3.03;;;4.00;79.30;;;;;;5058160;28;20421;-64
2021/03/16 06:41:19;;;;;;;6.88;3.63;;;4.00;79.40;;;;;;5058052;28;20399;-64
2021/03/16 06:44:17;;;;;;;8.23;3.38;;;4.00;79.50;;;;;;5056238;28;20033;-64
2021/03/16 06:46:50;;;;;;;7.72;3.50;;;4.00;80.00;;;;;;5056327;28;20282;-64
2021/03/16 06:49:22;;;;;;;6.22;3.10;;;4.10;79.50;;;;;;5055759;28;20037;-64
2021/03/16 06:51:54;;;;;;;7.50;3.00;;;4.10;79.50;;;;;;5057434;28;20041;-65
2021/03/16 06:54:25;;;;;;;6.97;2.90;;;4.10;79.50;;;;;;5057142;28;20036;-64
2021/03/16 06:56:58;;;;;;;6.32;3.08;;;4.10;79.50;;;;;;5072443;28;20565;-64
2021/03/16 06:59:33;;;;;;;8.50;3.15;;;4.10;79.40;;;;;;5056488;28;20120;-65
2021/03/16 07:02:11;;;;;;;6.60;2.92;;;4.20;79.50;;;;;;5052077;28;20051;-64
2021/03/16 07:04:49;;;;;;;6.30;3.03;;;4.20;79.30;;;;;;5055111;28;20145;-64
2021/03/16 07:07:23;;;;;;;5.95;3.17;;;4.30;79.20;;;;;;5051967;28;20041;-65
2021/03/16 07:09:57;;;;;;;12.20;3.53;;;4.30;79.00;;;;;;5054121;28;20491;-65
2021/03/16 07:12:25;;;;;;;;;;;4.40;78.80;;;;;;5050130;28;20514;-65
2021/03/16 07:14:55;;;;;;;7.00;3.00;;;4.40;78.80;;;;;;5057208;28;19954;-65
2021/03/16 07:17:21;;;;;;;9.30;3.30;;;4.40;78.40;;;;;;5056256;28;20086;-65
2021/03/16 07:19:52;;;;;;;6.10;2.83;;;4.40;78.30;;;;;;5055681;28;20037;-64
2021/03/16 07:22:23;;;;;;;6.95;2.63;;;4.50;78.50;;;;;;5055586;28;20040;-64
2021/03/16 07:24:51;;;;;;;6.90;2.75;;;4.40;78.20;;;;;;5057989;28;20025;-64
2021/03/16 07:27:17;;;;;;;6.20;2.50;;;4.50;78.20;;;;;;5055892;28;20115;-64
2021/03/16 07:29:46;;;;;;;7.07;2.45;;;4.50;78.10;;;;;;5057972;28;20120;-64
2021/03/16 07:32:15;;;;;;;5.85;2.42;;;4.50;78.00;;;;;;5056648;28;20024;-64
2021/03/16 07:34:42;;;;;;;8.25;2.90;;;4.60;78.00;;;;;;5056778;28;20574;-64
2021/03/16 07:37:11;;;;;;;5.20;2.35;;;4.60;77.90;;;;;;5055917;28;20055;-64
2021/03/16 07:39:42;;;;;;;6.95;2.10;;;4.60;77.90;;;;;;5056695;28;20024;-64
2021/03/16 07:42:12;;;;;;;3.92;2.40;;;4.60;77.60;;;;;;5057693;28;20033;-64
2021/03/16 07:44:42;;;;;;;9.13;2.65;;;4.60;77.50;;;;;;5056480;28;20535;-64
2021/03/16 07:47:08;;;;;;;6.40;2.40;;;4.60;77.30;;;;;;5054422;28;20063;-64
2021/03/16 07:49:42;;;;;;;6.45;2.55;;;4.70;77.10;;;;;;5057555;28;20028;-65
2021/03/16 07:52:23;;;;;;;8.55;2.85;;;4.60;76.90;;;;;;5057373;28;20128;-65
2021/03/16 07:54:54;;;;;;;6.57;2.38;;;4.70;77.10;;;;;;5055230;28;20024;-65
2021/03/16 07:57:31;;;;;;;6.57;3.13;;;4.70;77.30;;;;;;5056496;28;20435;-65
2021/03/16 07:59:59;;;;;;;8.45;3.25;;;4.70;77.20;;;;;;5056954;28;20036;-64
2021/03/16 08:02:37;;;;;;;6.97;2.65;;;4.70;78.10;;;;;;5040010;28;20056;-65
2021/03/16 08:05:16;;;;;;;8.50;2.78;;;4.80;77.30;;;;;;5053659;28;20047;-65
2021/03/16 08:07:42;;;;;;;9.68;2.55;;;4.80;76.60;;;;;;5051853;28;20124;-64
2021/03/16 08:10:09;;;;;;;6.68;3.00;;;4.80;76.60;;;;;;5051740;28;20123;-64
2021/03/16 08:12:37;;;;;;;6.65;2.80;;;4.80;76.60;;;;;;5050462;28;20033;-64
2021/03/16 08:15:13;;;;;;;10.38;3.30;;;4.90;76.70;;;;;;5056071;28;20021;-65
2021/03/16 08:17:41;;;;;;;6.43;3.63;;;4.90;76.40;;;;;;5068576;28;20037;-65
2021/03/16 08:20:24;;;;;;;7.40;3.53;;;4.90;76.30;;;;;;5050134;28;20044;-64
2021/03/16 08:23:04;;;;;;;8.98;2.60;;;4.90;75.70;;;;;;5055930;28;20029;-65
2021/03/16 08:25:35;;;;;;;8.82;2.70;;;4.90;76.00;;;;;;5056497;28;20066;-65
2021/03/16 08:28:06;;;;;;;6.78;2.92;;;5.00;76.00;;;;;;5054961;28;20025;-65
2021/03/16 08:30:35;;;;;;;9.60;2.80;;;5.00;75.90;;;;;;5050694;28;20033;-65
2021/03/16 08:33:14;;;;;;;6.97;2.45;;;5.00;75.90;;;;;;5069105;28;20032;-65
2021/03/16 08:35:47;;;;;;;6.35;2.50;;;5.00;75.50;;;;;;5056489;28;20040;-65
2021/03/16 08:38:27;;;;;;;6.28;2.55;;;5.00;75.50;;;;;;5060243;28;20458;-63
2021/03/16 08:41:16;;;;;;;11.18;3.00;;;5.10;75.40;;;;;;5058109;28;20096;-65
2021/03/16 08:43:49;;;;;;;6.90;2.67;;;5.10;75.20;;;;;;5060288;28;20119;-64
2021/03/16 08:46:25;;;;;;;8.73;3.30;;;5.10;75.60;;;;;;5059586;28;20033;-65
2021/03/16 08:48:55;;;;;;;8.05;2.95;;;5.10;75.70;;;;;;5057842;28;20029;-64
2021/03/16 08:51:30;;;;;;;10.68;3.00;;;5.20;75.40;;;;;;5058160;28;20041;-65
2021/03/16 08:53:56;;;;;;;;;;;5.20;75.30;;;;;;5059080;28;20032;-65
2021/03/16 08:56:26;;;;;;;6.72;2.80;;;5.20;74.30;;;;;;5059089;28;19916;-65
2021/03/16 08:59:04;;;;;;;6.25;2.55;;;5.20;74.80;;;;;;5057761;28;20037;-65
2021/03/16 09:01:33;;;;;;;4.88;2.47;;;5.20;74.60;;;;;;5058524;28;20523;-65
2021/03/16 09:04:15;;;;;;;8.02;2.58;;;5.20;74.80;;;;;;5043824;28;20028;-65
2021/03/16 09:06:44;;;;;;;9.98;2.67;;;5.20;74.80;;;;;;5054988;28;20818;-64
2021/03/16 09:09:11;;;;;;;5.63;2.40;;;5.20;74.80;;;;;;5056305;28;20413;-65
2021/03/16 09:11:45;;;;;;;10.20;2.75;;;5.30;74.90;;;;;;5054915;28;20098;-64
2021/03/16 09:14:23;;;;;;;6.78;2.55;;;5.30;74.50;;;;;;5042700;28;20033;-64
2021/03/16 09:16:54;;;;;;;7.63;2.70;;;5.30;75.00;;;;;;5059473;28;20032;-64
2021/03/16 09:19:26;;;;;;;6.97;2.67;;;5.30;75.20;;;;;;5056319;28;20037;-65
2021/03/16 09:21:58;;;;;;;6.65;2.10;;;5.40;75.00;;;;;;5059738;28;20053;-65
2021/03/16 09:24:28;;;;;;;5.55;1.98;;;5.40;74.60;;;;;;5056206;28;20033;-65
2021/03/16 09:26:54;;;;;;;6.03;2.78;;;5.40;74.40;;;;;;5054052;28;20029;-65
2021/03/16 09:29:25;;;;;;;6.55;2.67;;;5.40;74.60;;;;;;5059027;28;20037;-65
2021/03/16 09:31:57;;;;;;;9.82;3.60;;;5.40;75.00;;;;;;5058868;28;20033;-65
2021/03/16 09:34:25;;;;;;;6.50;2.40;;;5.40;75.20;;;;;;5054869;28;20468;-65
2021/03/16 09:37:07;;;;;;;5.43;2.60;;;5.40;75.30;;;;;;5056437;28;20028;-65
2021/03/16 09:39:32;;;;;;;7.97;3.55;;;5.30;75.30;;;;;;5055815;28;20075;-65
2021/03/16 09:42:04;;;;;;;4.82;2.72;;;5.30;75.70;;;;;;5058781;28;20040;-64
2021/03/16 09:44:37;;;;;;;9.05;2.80;;;5.20;76.00;;;;;;5069849;28;20049;-65
2021/03/16 09:47:04;;;;;;;5.93;3.30;;;5.20;76.60;;;;;;5058061;28;20079;-65
2021/03/16 09:49:36;;;;;;;7.30;2.70;;;5.20;76.70;;;;;;5058557;28;20072;-64
2021/03/16 09:52:06;;;;;;;6.78;2.63;;;5.10;76.70;;;;;;5055960;28;20048;-65
2021/03/16 09:54:42;;;;;;;5.22;2.65;;;5.10;77.10;;;;;;5055869;28;20029;-64
2021/03/16 09:57:16;;;;;;;6.20;2.80;;;5.10;77.50;;;;;;5053802;28;20060;-64
2021/03/16 09:59:46;;;;;;;5.50;2.70;;;5.10;77.60;;;;;;5059464;28;20043;-64
2021/03/16 10:02:12;;;;;;;6.95;3.08;;;5.10;77.80;;;;;;5057084;28;20056;-65
2021/03/16 10:04:51;;;;;;;10.98;3.35;;;5.20;78.00;;;;;;5055664;28;20037;-65
2021/03/16 10:07:38;;;;;;;6.93;3.45;;;5.20;78.40;;;;;;5058315;28;20139;-66
2021/03/16 10:10:14;;;;;;;7.45;2.97;;;5.20;77.80;;;;;;5057054;28;20033;-65
2021/03/16 10:13:02;;;;;;;9.73;3.50;;;5.30;77.80;;;;;;5054754;28;20033;-65
2021/03/16 10:15:30;;;;;;;5.57;2.45;;;5.40;77.80;;;;;;5057681;28;20104;-65
2021/03/16 10:18:01;;;;;;;9.02;3.00;;;5.40;77.60;;;;;;5056968;28;20101;-64
2021/03/16 10:20:35;;;;;;;7.53;2.83;;;5.60;78.10;;;;;;5054914;28;20033;-65
2021/03/16 10:23:06;;;;;;;8.45;3.35;;;5.70;76.90;;;;;;5054430;28;20037;-65
2021/03/16 10:25:36;;;;;;;8.52;3.25;;;5.70;76.50;;;;;;5055840;28;20064;-65
2021/03/16 10:28:07;;;;;;;6.35;2.95;;;5.80;76.20;;;;;;5053173;28;20552;-64
2021/03/16 10:30:35;;;;;;;11.15;3.08;;;5.90;76.30;;;;;;5055239;28;20032;-65
2021/03/16 10:33:04;;;;;;;7.70;3.33;;;5.90;75.80;;;;;;5056361;28;20458;-65
2021/03/16 10:35:35;;;;;;;8.23;3.17;;;6.00;75.70;;;;;;5057983;28;20104;-65
2021/03/16 10:38:04;;;;;;;5.88;2.90;;;6.00;75.30;;;;;;5055304;28;20029;-65
2021/03/16 10:40:36;;;;;;;9.27;3.22;;;6.10;75.00;;;;;;5058258;28;20067;-65
2021/03/16 10:43:04;;;;;;;9.80;3.45;;;6.10;74.80;;;;;;5057952;28;20037;-65
2021/03/16 10:45:36;;;;;;;8.45;3.15;;;6.10;74.40;;;;;;5056752;28;20099;-65
2021/03/16 10:48:01;;;;;;;4.93;2.88;;;6.10;73.60;;;;;;5055097;28;20025;-65
2021/03/16 10:50:27;;;;;;;7.57;2.83;;;6.20;73.50;;;;;;5055415;28;20067;-66
2021/03/16 10:52:55;;;;;;;7.00;2.45;;;6.20;73.10;;;;;;5055716;28;20396;-65
2021/03/16 10:55:29;;;;;;;5.90;2.40;;;6.20;72.70;;;;;;5055747;28;20048;-64
2021/03/16 10:57:56;;;;;;;5.28;2.65;;;6.20;73.10;;;;;;5054333;28;20025;-65
2021/03/16 11:00:22;;;;;;;7.20;3.10;;;6.20;72.80;;;;;;5057210;28;20108;-65
2021/03/16 11:02:48;;;;;;;10.48;3.10;;;6.20;72.60;;;;;;5055974;28;20157;-64
2021/03/16 11:05:18;;;;;;;5.40;2.42;;;6.20;72.10;;;;;;5057033;28;20032;-65
2021/03/16 11:07:46;;;;;;;4.97;2.50;;;6.30;71.80;;;;;;5056993;28;20025;-65
2021/03/16 11:10:15;;;;;;;4.55;2.60;;;6.30;71.30;;;;;;5055189;28;20170;-65
2021/03/16 11:12:43;;;;;;;7.93;2.65;;;6.30;71.90;;;;;;5052844;28;20523;-65
2021/03/16 11:15:14;;;;;;;7.90;2.88;;;6.40;71.30;;;;;;5057528;28;20047;-65
2021/03/16 11:17:44;;;;;;;6.72;3.00;;;6.40;71.00;;;;;;5056045;28;20036;-65
2021/03/16 11:20:13;;;;;;;5.93;2.22;;;6.50;70.10;;;;;;5055317;28;20475;-65
2021/03/16 11:22:41;;;;;;;4.75;2.15;;;6.60;70.50;;;;;;5057502;28;20510;-65
2021/03/16 11:25:12;;;;;;;5.13;2.22;;;6.70;70.30;;;;;;5057336;28;20112;-65
2021/03/16 11:27:40;;;;;;;5.15;2.22;;;6.80;69.00;;;;;;5057392;28;20493;-65
2021/03/16 11:30:10;;;;;;;5.22;2.72;;;6.80;68.80;;;;;;5056933;28;20041;-65
2021/03/16 11:32:38;;;;;;;3.65;2.33;;;6.80;68.60;;;;;;5057141;28;20037;-65
2021/03/16 11:35:05;;;;;;;5.55;2.40;;;6.90;68.60;;;;;;5057400;28;20034;-65
2021/03/16 11:37:33;;;;;;;5.00;2.78;;;6.90;68.50;;;;;;5056597;28;20307;-65
2021/03/16 11:40:00;;;;;;;6.03;3.03;;;6.90;68.10;;;;;;5057419;28;20029;-65
2021/03/16 11:42:31;;;;;;;6.32;2.50;;;6.90;69.30;;;;;;5053396;28;20691;-64
2021/03/16 11:44:56;;;;;;;7.75;2.47;;;6.90;70.70;;;;;;5031357;28;20621;-65
2021/03/16 11:47:27;;;;;;;6.55;2.55;;;6.90;69.70;;;;;;5032204;28;20026;-65
2021/03/16 11:49:55;;;;;;;4.03;1.90;;;6.90;69.30;;;;;;5032306;28;20029;-65
2021/03/16 11:52:25;;;;;;;2.63;2.03;;;6.90;69.20;;;;;;5029141;28;20056;-66
2021/03/16 11:54:53;;;;;;;4.55;2.33;;;6.80;69.70;;;;;;5035000;28;20029;-65
2021/03/16 11:57:21;;;;;;;4.68;2.65;;;6.70;70.50;;;;;;5033424;28;20029;-67
2021/03/16 11:59:52;;;;;;;5.95;2.63;;;6.60;71.40;;;;;;5036631;28;20108;-64
2021/03/16 12:02:20;;;;;;;4.20;2.70;;;6.50;71.90;;;;;;5034435;28;20032;-65
2021/03/16 12:04:50;;;;;;;3.83;2.20;;;6.40;72.40;;;;;;5055370;28;20040;-64
2021/03/16 12:07:16;;;;;;;5.75;2.50;;;6.20;72.60;;;;;;5056011;28;20045;-64
2021/03/16 12:09:42;;;;;;;3.83;2.50;;;6.10;73.00;;;;;;5055785;28;20057;-64
2021/03/16 12:12:11;;;;;;;4.93;2.40;;;6.00;73.40;;;;;;5056581;28;20033;-64
2021/03/16 12:14:39;;;;;;;4.40;2.72;;;5.90;74.40;;;;;;5065336;28;20025;-63
2021/03/16 12:17:07;;;;;;;5.07;2.83;;;5.80;74.60;;;;;;5059139;28;20029;-64
2021/03/16 12:19:35;;;;;;;5.95;2.60;;;5.70;75.20;;;;;;5048462;28;20492;-64
2021/03/16 12:22:01;;;;;;;2.30;2.10;;;5.60;75.50;;;;;;5040376;28;20045;-64
2021/03/16 12:24:31;;;;;;;4.30;2.45;;;5.60;75.50;;;;;;5040837;28;20029;-64
2021/03/16 12:26:59;;;;;;;5.57;2.70;;;5.50;76.00;;;;;;5053265;28;20508;-64
2021/03/16 12:29:27;;;;;;;4.47;2.35;;;5.50;76.40;;;;;;5039393;28;20029;-65
2021/03/16 12:31:52;;;;;;;6.07;2.95;;;5.40;76.00;;;;;;5038692;28;20048;-64
2021/03/16 12:34:25;;;;;;;5.25;2.83;;;5.50;76.20;;;;;;5039058;28;20033;-64
2021/03/16 12:36:51;;;;;;;3.55;2.75;;;5.50;76.60;;;;;;5039994;28;20439;-64
2021/03/16 12:39:17;;;;;;;3.47;2.38;;;5.40;77.10;;;;;;5041040;28;20066;-64
2021/03/16 12:41:42;;;;;;;3.90;2.63;;;5.40;77.10;;;;;;5038885;28;20048;-64
2021/03/16 12:44:08;;;;;;;5.82;2.42;;;5.40;76.90;;;;;;5045701;28;20080;-64
2021/03/16 12:46:36;;;;;;;6.03;3.13;;;5.40;75.70;;;;;;5038032;28;20029;-66
2021/03/16 12:49:04;;;;;;;5.95;2.45;;;5.30;75.40;;;;;;5038768;28;20116;-66
2021/03/16 12:51:34;;;;;;;4.80;2.63;;;5.20;75.50;;;;;;5035935;28;20073;-65
2021/03/16 12:54:02;;;;;;;7.88;3.08;;;5.10;75.60;;;;;;5038928;28;20042;-64
2021/03/16 12:56:32;;;;;;;6.47;3.10;;;4.90;75.90;;;;;;5053379;28;20132;-64
2021/03/16 12:58:58;;;;;;;6.90;2.90;;;4.80;76.30;;;;;;5059907;28;20025;-64
2021/03/16 13:01:24;;;;;;;5.50;3.38;;;4.70;76.90;;;;;;5058812;28;20052;-65
2021/03/16 13:03:52;;;;;;;6.88;3.03;;;4.70;77.30;;;;;;5059984;28;20567;-63
2021/03/16 13:06:22;;;;;;;4.82;2.90;;;4.60;78.00;;;;;;5054654;28;20029;-65
2021/03/16 13:08:52;;;;;;;5.85;3.00;;;4.60;78.10;;;;;;5055111;28;20065;-65
2021/03/16 13:11:22;;;;;;;9.43;3.10;;;4.60;78.50;;;;;;5055463;28;20135;-65
2021/03/16 13:13:48;;;;;;;6.93;3.50;;;4.60;78.60;;;;;;5060131;28;20060;-65